Time;durP1;ratioP1;P1;durP2;ratioP2;P2;SDS_P1;SDS_P2;PMS_P1;PMS_P2;Temp;Humidity;BMP_temperature;BMP_pressure;BME280_temperature;BME280_humidity;BME280_pressure;Samples;Min_cycle;Max_cycle;Signal;HPM_P1;HPM_P2
2021/10/12 00:05:43;;;;;;;4.80;1.13;;;9.70;99.90;;;;;;5760016;22;20463;-50
2021/10/12 00:08:10;;;;;;;2.57;1.33;;;9.70;99.90;;;;;;5095135;28;20436;-46
2021/10/12 00:10:37;;;;;;;10.73;1.53;;;9.70;99.90;;;;;;5102551;22;20465;-51
2021/10/12 00:13:03;;;;;;;3.60;1.20;;;9.60;99.90;;;;;;5100559;28;20798;-46
2021/10/12 00:17:58;;;;;;;3.00;1.57;;;9.60;99.90;;;;;;5083522;22;20482;-47
2021/10/12 00:20:25;;;;;;;1.50;0.97;;;9.60;99.90;;;;;;5078462;28;20446;-47
2021/10/12 00:22:53;;;;;;;3.83;1.10;;;9.60;99.90;;;;;;5116593;22;20478;-40
2021/10/12 00:25:19;;;;;;;3.03;1.13;;;9.60;99.90;;;;;;5118605;28;20413;-42
2021/10/12 00:51:03;;;;;;;5.60;1.37;;;9.50;99.90;;;;;;5092654;28;20485;-51
2021/10/12 00:53:29;;;;;;;3.53;1.50;;;9.40;99.90;;;;;;5084680;22;20486;-50
2021/10/12 00:55:56;;;;;;;1.70;1.53;;;9.40;99.90;;;;;;5073875;28;20497;-49
2021/10/12 00:58:23;;;;;;;6.40;1.20;;;9.50;99.90;;;;;;5097252;22;20488;-46
2021/10/12 01:00:50;;;;;;;2.40;1.17;;;9.50;99.90;;;;;;5095988;28;20526;-52
2021/10/12 01:03:17;;;;;;;4.20;0.90;;;9.50;99.90;;;;;;5092144;22;20836;-47
2021/10/12 01:05:43;;;;;;;6.83;1.20;;;9.50;99.90;;;;;;5078117;28;20587;-51
2021/10/12 01:08:13;;;;;;;1.30;0.90;;;9.50;99.90;;;;;;5096737;22;20485;-49
2021/10/12 01:10:43;;;;;;;3.23;1.30;;;9.50;99.90;;;;;;5098091;28;20459;-44
2021/10/12 01:13:10;;;;;;;2.17;1.10;;;9.50;99.90;;;;;;5097551;22;20567;-48
2021/10/12 01:15:37;;;;;;;2.50;1.43;;;9.40;99.90;;;;;;5079445;28;20507;-46
2021/10/12 01:18:12;;;;;;;1.17;0.80;;;9.40;99.90;;;;;;5087331;22;20555;-45
2021/10/12 01:20:40;;;;;;;1.23;0.87;;;9.40;99.90;;;;;;5081214;28;20450;-50
2021/10/12 01:23:10;;;;;;;1.27;0.90;;;9.40;99.90;;;;;;5093674;22;20949;-46
2021/10/12 01:25:36;;;;;;;1.83;1.00;;;9.30;99.90;;;;;;5102157;28;20446;-46
2021/10/12 01:28:04;;;;;;;3.43;1.63;;;9.30;99.90;;;;;;5106593;22;20477;-47
2021/10/12 01:30:31;;;;;;;2.60;0.93;;;9.40;99.90;;;;;;5092679;28;20410;-39
2021/10/12 02:35:08;;;;;;;8.83;1.73;;;9.20;99.90;;;;;;5216743;22;20476;-52
2021/10/12 02:37:35;;;;;;;3.07;2.13;;;9.10;99.90;;;;;;5117493;28;20467;-50
2021/10/12 02:40:02;;;;;;;7.10;2.17;;;9.10;99.90;;;;;;5125057;22;20473;-49
2021/10/12 02:42:28;;;;;;;3.10;1.30;;;9.10;99.90;;;;;;5118240;28;20445;-47
2021/10/12 02:44:55;;;;;;;2.60;1.23;;;9.10;99.90;;;;;;5162989;22;20848;-46
2021/10/12 02:47:22;;;;;;;7.03;1.40;;;9.10;99.90;;;;;;5096052;28;20506;-48
2021/10/12 02:49:51;;;;;;;5.87;1.67;;;9.00;99.90;;;;;;5103606;22;20558;-51
2021/10/12 02:52:19;;;;;;;5.10;2.90;;;9.10;99.90;;;;;;5097051;28;20475;-50
2021/10/12 02:54:49;;;;;;;3.90;1.90;;;9.10;99.90;;;;;;5105643;22;20555;-52
2021/10/12 02:57:16;;;;;;;3.73;2.03;;;9.00;99.90;;;;;;5096990;28;20441;-46
2021/10/12 03:25:37;;;;;;;3.40;1.53;;;9.00;99.90;;;;;;5319533;22;20465;-49
2021/10/12 03:28:05;;;;;;;5.20;1.67;;;9.00;99.90;;;;;;5095610;28;20434;-45
2021/10/12 03:30:33;;;;;;;7.60;1.60;;;9.00;99.90;;;;;;5095352;22;20480;-44
2021/10/12 03:33:00;;;;;;;8.63;1.90;;;9.00;99.90;;;;;;5095164;28;20467;-46
2021/10/12 03:35:30;;;;;;;2.00;1.60;;;9.10;99.90;;;;;;5093629;22;20529;-47
2021/10/12 03:37:57;;;;;;;4.33;2.13;;;9.00;99.90;;;;;;5074866;28;20508;-48
2021/10/12 03:40:24;;;;;;;2.20;1.80;;;9.00;99.90;;;;;;5094831;22;20475;-44
2021/10/12 03:42:52;;;;;;;4.47;1.60;;;9.00;99.90;;;;;;5119291;28;20414;-43
2021/10/12 04:03:28;;;;;;;3.43;1.20;;;8.90;99.90;;;;;;5709871;22;20490;-45
2021/10/12 04:05:54;;;;;;;8.73;1.73;;;8.90;99.90;;;;;;5094429;28;20466;-46
2021/10/12 04:08:21;;;;;;;12.67;1.57;;;9.00;99.90;;;;;;5098991;22;20478;-49
2021/10/12 04:10:48;;;;;;;2.83;1.30;;;9.00;99.90;;;;;;5074178;28;20474;-51
2021/10/12 04:13:14;;;;;;;5.33;2.03;;;9.00;99.90;;;;;;5083497;22;20907;-47
2021/10/12 04:15:41;;;;;;;4.03;1.70;;;9.10;99.90;;;;;;5093969;28;20832;-48
2021/10/12 04:18:10;;;;;;;6.40;1.47;;;9.00;99.90;;;;;;5094838;28;20464;-48
2021/10/12 04:20:38;;;;;;;3.00;1.80;;;9.00;99.90;;;;;;5105126;28;20464;-46
2021/10/12 04:23:08;;;;;;;8.53;1.60;;;9.10;99.90;;;;;;5118817;28;20430;-40
2021/10/12 04:25:35;;;;;;;3.53;1.50;;;9.10;99.90;;;;;;5118730;28;20504;-41
2021/10/12 04:28:04;;;;;;;6.43;1.93;;;9.20;99.90;;;;;;5118802;28;20417;-45
2021/10/12 04:30:31;;;;;;;3.10;1.60;;;9.20;99.90;;;;;;5118769;28;20445;-44
2021/10/12 04:32:57;;;;;;;4.97;1.87;;;9.20;99.90;;;;;;5118759;28;20414;-44
2021/10/12 04:35:24;;;;;;;11.63;2.37;;;9.20;99.90;;;;;;5120264;28;20491;-42
2021/10/12 04:37:57;;;;;;;3.63;1.77;;;9.20;99.90;;;;;;5122868;28;20444;-39
2021/10/12 04:40:25;;;;;;;10.73;2.17;;;9.30;99.90;;;;;;5122850;28;20437;-40
2021/10/12 04:42:52;;;;;;;4.40;1.60;;;9.30;99.90;;;;;;5122727;28;20443;-44
2021/10/12 04:45:19;;;;;;;5.17;3.10;;;9.30;99.90;;;;;;5122689;28;20437;-41
2021/10/12 04:47:45;;;;;;;10.20;2.60;;;9.30;99.90;;;;;;5122707;28;20451;-42
2021/10/12 04:50:12;;;;;;;3.63;1.77;;;9.30;99.90;;;;;;5122126;28;20448;-52
2021/10/12 04:52:40;;;;;;;4.07;2.10;;;9.40;99.90;;;;;;5120624;28;20465;-51
2021/10/12 04:55:08;;;;;;;2.37;1.83;;;9.30;99.90;;;;;;5116728;28;20498;-49
2021/10/12 04:57:35;;;;;;;2.13;1.50;;;9.30;99.90;;;;;;5098310;28;20438;-49
2021/10/12 05:00:02;;;;;;;3.63;2.10;;;9.30;99.90;;;;;;5098096;28;20441;-48
2021/10/12 05:02:28;;;;;;;3.80;1.60;;;9.40;99.90;;;;;;5098362;28;20430;-45
2021/10/12 05:04:55;;;;;;;1.80;1.33;;;9.40;99.90;;;;;;5098010;28;20829;-46
2021/10/12 05:07:22;;;;;;;3.27;1.53;;;9.30;99.90;;;;;;5112930;28;20438;-42
2021/10/12 05:09:48;;;;;;;12.93;2.37;;;9.30;99.90;;;;;;5122244;28;20483;-46
2021/10/12 05:12:16;;;;;;;2.70;1.70;;;9.30;99.90;;;;;;5104504;28;20781;-47
2021/10/12 05:14:43;;;;;;;3.77;2.10;;;9.30;99.90;;;;;;5102287;28;20528;-47
2021/10/12 05:17:16;;;;;;;3.80;2.20;;;9.30;99.90;;;;;;5100272;28;20491;-46
2021/10/12 05:19:42;;;;;;;2.73;1.90;;;9.30;99.90;;;;;;5097621;28;20442;-49
2021/10/12 05:22:09;;;;;;;7.23;2.43;;;9.30;99.90;;;;;;5097709;28;20453;-49
2021/10/12 05:24:35;;;;;;;3.30;1.70;;;9.20;99.90;;;;;;5097757;28;20441;-44
2021/10/12 05:27:06;;;;;;;4.70;1.60;;;9.20;99.90;;;;;;5097716;28;20437;-48
2021/10/12 05:29:34;;;;;;;4.20;1.63;;;9.30;99.90;;;;;;5097636;28;20453;-50
2021/10/12 05:32:01;;;;;;;3.17;1.70;;;9.30;99.90;;;;;;5097583;28;20453;-44
2021/10/12 05:34:27;;;;;;;3.10;2.03;;;9.30;99.90;;;;;;5097379;28;20475;-50
2021/10/12 05:36:54;;;;;;;7.33;1.73;;;9.30;99.90;;;;;;5098090;28;20516;-46
2021/10/12 05:39:21;;;;;;;3.13;1.53;;;9.40;99.90;;;;;;5099728;28;20441;-51
2021/10/12 05:41:47;;;;;;;1.60;1.13;;;9.30;99.90;;;;;;5099758;28;20473;-44
2021/10/12 05:44:14;;;;;;;1.97;1.60;;;9.30;99.90;;;;;;5100090;28;20437;-47
2021/10/12 05:46:42;;;;;;;1.80;1.50;;;9.30;99.90;;;;;;5101015;28;20457;-49
2021/10/12 05:49:09;;;;;;;2.87;2.43;;;9.30;99.90;;;;;;5101341;28;20518;-46
2021/10/12 05:51:36;;;;;;;2.00;1.60;;;9.30;99.90;;;;;;5101467;28;20473;-47
2021/10/12 05:54:05;;;;;;;3.63;1.50;;;9.30;99.90;;;;;;5101113;28;20461;-47
2021/10/12 05:56:39;;;;;;;3.77;1.70;;;9.30;99.90;;;;;;5104305;28;20482;-43
2021/10/12 05:59:06;;;;;;;2.50;1.40;;;9.30;99.90;;;;;;5107598;28;20468;-46
2021/10/12 06:01:35;;;;;;;2.53;1.30;;;9.30;99.90;;;;;;5103494;28;20530;-52
2021/10/12 06:04:03;;;;;;;1.93;1.10;;;9.30;99.90;;;;;;5103570;28;20772;-52
2021/10/12 06:06:30;;;;;;;2.90;1.20;;;9.40;99.90;;;;;;5101289;28;20847;-42
2021/10/12 06:08:56;;;;;;;1.27;1.13;;;9.40;99.90;;;;;;5101645;28;20445;-50
2021/10/12 06:11:23;;;;;;;4.03;1.53;;;9.40;99.90;;;;;;5100191;28;20466;-48
2021/10/12 06:13:51;;;;;;;1.80;1.57;;;9.40;99.90;;;;;;5096697;28;20534;-50
2021/10/12 06:16:18;;;;;;;3.60;2.53;;;9.40;99.90;;;;;;5096289;28;20493;-49
2021/10/12 06:18:46;;;;;;;2.63;2.13;;;9.50;99.90;;;;;;5097083;28;20449;-48
2021/10/12 06:21:14;;;;;;;2.47;1.83;;;9.50;99.90;;;;;;5096890;28;20445;-49
2021/10/12 06:23:41;;;;;;;4.30;2.37;;;9.50;99.90;;;;;;5096651;28;20463;-46
2021/10/12 06:26:08;;;;;;;4.17;2.57;;;9.60;99.90;;;;;;5093500;28;20477;-48
2021/10/12 06:28:35;;;;;;;5.03;2.10;;;9.60;99.90;;;;;;5108207;28;20450;-47
2021/10/12 06:31:01;;;;;;;3.63;2.00;;;9.70;99.90;;;;;;5096670;28;20448;-50
2021/10/12 06:33:28;;;;;;;5.97;2.07;;;9.70;99.90;;;;;;5094868;28;20437;-47
2021/10/12 06:35:55;;;;;;;6.77;2.90;;;9.70;99.90;;;;;;5084960;28;20482;-44
2021/10/12 06:38:23;;;;;;;5.20;3.30;;;9.80;99.90;;;;;;5096435;28;20490;-50
2021/10/12 06:40:49;;;;;;;2.30;1.87;;;9.80;99.90;;;;;;5093907;28;20447;-50
2021/10/12 06:43:16;;;;;;;3.07;2.00;;;9.90;99.90;;;;;;5092487;28;20543;-49
2021/10/12 06:45:46;;;;;;;3.87;2.13;;;9.90;99.90;;;;;;5113134;22;20497;-46
2021/10/12 06:48:12;;;;;;;9.83;2.57;;;9.90;99.90;;;;;;5112844;28;20474;-46
2021/10/12 06:50:42;;;;;;;6.40;2.70;;;10.00;99.90;;;;;;5126669;22;20488;-44
2021/10/12 06:53:09;;;;;;;5.40;3.27;;;10.00;99.90;;;;;;5121058;28;20461;-50
2021/10/12 06:55:43;;;;;;;5.13;2.23;;;10.10;99.90;;;;;;5112760;22;20482;-50
2021/10/12 06:58:10;;;;;;;2.57;2.07;;;10.10;99.90;;;;;;5063319;28;20460;-46
2021/10/12 07:00:37;;;;;;;2.17;1.63;;;10.10;99.90;;;;;;5103561;22;20494;-46
2021/10/12 07:03:04;;;;;;;3.03;2.30;;;10.20;99.90;;;;;;5094787;28;20466;-44
2021/10/12 07:05:40;;;;;;;3.60;2.50;;;10.10;99.90;;;;;;5103081;22;20508;-44
2021/10/12 07:08:06;;;;;;;7.90;2.23;;;10.00;99.90;;;;;;5095173;28;20484;-48
2021/10/12 07:10:34;;;;;;;8.50;2.93;;;10.00;99.90;;;;;;5102593;22;20513;-43
2021/10/12 07:13:03;;;;;;;2.77;2.50;;;10.00;99.90;;;;;;5093480;28;20519;-53
2021/10/12 07:15:30;;;;;;;18.73;2.23;;;10.10;99.90;;;;;;5091896;22;20554;-49
2021/10/12 07:17:57;;;;;;;3.47;1.90;;;10.10;99.90;;;;;;5096307;28;20484;-51
2021/10/12 07:20:23;;;;;;;4.27;1.43;;;10.20;99.90;;;;;;5101739;22;20421;-47
2021/10/12 07:22:50;;;;;;;2.97;1.93;;;10.20;99.90;;;;;;5064425;28;20581;-53
2021/10/12 07:25:17;;;;;;;3.70;1.77;;;10.30;99.90;;;;;;5073506;22;20485;-45
2021/10/12 07:27:45;;;;;;;2.50;1.73;;;10.30;99.90;;;;;;5081874;28;20455;-46
2021/10/12 07:30:13;;;;;;;2.97;1.47;;;10.30;99.90;;;;;;5083390;28;20441;-49
2021/10/12 07:32:40;;;;;;;4.00;1.00;;;10.30;99.90;;;;;;5108510;22;20500;-46
2021/10/12 07:35:08;;;;;;;4.20;2.00;;;10.30;99.90;;;;;;5103284;28;20441;-49
2021/10/12 07:37:40;;;;;;;3.30;1.70;;;10.30;99.90;;;;;;5095420;22;20543;-47
2021/10/12 07:40:08;;;;;;;3.43;1.30;;;10.30;99.90;;;;;;5084032;28;20433;-45
2021/10/12 07:42:35;;;;;;;2.60;1.13;;;10.30;99.90;;;;;;5092178;22;20493;-47
2021/10/12 07:45:02;;;;;;;6.17;1.93;;;10.20;99.90;;;;;;5085206;28;20460;-47
2021/10/12 07:47:30;;;;;;;3.23;1.27;;;10.30;99.90;;;;;;5092143;22;20520;-48
2021/10/12 07:49:56;;;;;;;3.33;1.30;;;10.40;99.90;;;;;;5083844;28;20492;-52
2021/10/12 07:52:33;;;;;;;1.77;1.50;;;10.50;99.90;;;;;;5099558;22;20486;-47
2021/10/12 07:57:44;;;;;;;2.00;1.70;;;10.70;99.90;;;;;;5097995;22;20512;-44
2021/10/12 08:00:12;;;;;;;1.30;1.20;;;10.70;99.90;;;;;;5082343;28;20463;-47
2021/10/12 08:02:42;;;;;;;2.50;1.10;;;10.70;99.90;;;;;;5123321;22;20489;-41
2021/10/12 08:05:09;;;;;;;2.00;1.40;;;10.70;99.90;;;;;;5077645;28;20454;-44
2021/10/12 08:07:36;;;;;;;1.30;1.13;;;10.80;99.90;;;;;;5092048;22;20530;-46
2021/10/12 08:10:03;;;;;;;1.93;1.00;;;10.90;99.90;;;;;;5103639;28;20421;-44
2021/10/12 08:12:30;;;;;;;6.47;2.70;;;10.90;99.90;;;;;;5119301;22;20441;-43
2021/10/12 08:14:59;;;;;;;1.57;0.93;;;10.90;99.90;;;;;;5078411;28;20442;-43
2021/10/12 08:17:28;;;;;;;1.77;1.00;;;10.90;99.90;;;;;;5085694;22;20478;-46
2021/10/12 08:19:56;;;;;;;2.30;2.10;;;10.90;99.90;;;;;;5077934;28;20496;-45
2021/10/12 08:24:48;;;;;;;2.03;0.93;;;10.80;99.90;;;;;;5098936;22;20933;-46
2021/10/12 08:27:15;;;;;;;1.87;1.40;;;10.80;99.90;;;;;;5098163;28;20199;-43
2021/10/12 08:29:41;;;;;;;3.23;1.00;;;10.80;99.90;;;;;;5104748;22;20574;-47
2021/10/12 08:32:08;;;;;;;2.23;1.30;;;10.80;99.90;;;;;;5098042;28;20841;-46
2021/10/12 08:34:35;;;;;;;2.33;2.00;;;10.90;99.90;;;;;;5099910;22;20539;-44
2021/10/12 08:37:03;;;;;;;2.30;1.10;;;11.00;99.90;;;;;;5080734;28;20514;-43
2021/10/12 08:39:33;;;;;;;2.30;1.33;;;11.10;99.90;;;;;;5092231;22;20605;-44
2021/10/12 08:42:08;;;;;;;2.60;1.30;;;11.20;99.90;;;;;;5098034;28;20867;-44
2021/10/12 08:44:47;;;;;;;3.00;1.30;;;11.40;99.90;;;;;;5101617;22;20481;-44
2021/10/12 08:47:15;;;;;;;1.20;0.93;;;11.30;99.90;;;;;;5078030;28;20445;-44
2021/10/12 08:49:42;;;;;;;1.30;1.13;;;11.30;99.90;;;;;;5088353;22;20956;-44
2021/10/12 08:52:10;;;;;;;1.60;1.00;;;11.30;99.90;;;;;;5098000;28;20433;-43
2021/10/12 08:54:37;;;;;;;2.30;1.33;;;11.20;99.90;;;;;;5105162;22;20473;-44
2021/10/12 08:57:03;;;;;;;6.10;1.63;;;11.20;99.90;;;;;;5077116;28;20532;-47
2021/10/12 08:59:30;;;;;;;1.00;0.90;;;11.10;99.90;;;;;;5076852;28;20937;-43
2021/10/12 09:01:59;;;;;;;3.10;1.23;;;11.10;99.90;;;;;;5102229;22;20965;-44
2021/10/12 09:04:36;;;;;;;2.53;1.00;;;11.10;99.90;;;;;;5099357;28;20472;-49
2021/10/12 09:07:02;;;;;;;1.37;1.03;;;11.10;99.90;;;;;;5091133;22;20478;-43
2021/10/12 09:09:39;;;;;;;1.70;1.10;;;11.20;99.90;;;;;;5060435;28;20466;-44
2021/10/12 09:12:06;;;;;;;2.33;1.27;;;11.20;99.90;;;;;;5101428;22;20690;-43
2021/10/12 09:14:33;;;;;;;4.30;1.30;;;11.20;99.90;;;;;;5077372;28;20535;-46
2021/10/12 09:17:06;;;;;;;7.33;1.10;;;11.20;99.90;;;;;;5084927;22;20513;-46
2021/10/12 09:19:34;;;;;;;13.70;1.63;;;11.20;99.90;;;;;;5076869;28;20516;-40
2021/10/12 09:22:06;;;;;;;1.73;0.90;;;11.30;99.90;;;;;;5087069;22;20505;-44
2021/10/12 09:24:39;;;;;;;2.57;1.33;;;11.80;99.90;;;;;;5080129;28;20458;-45
2021/10/12 09:27:09;;;;;;;1.20;0.90;;;12.10;99.90;;;;;;5091922;22;20730;-44
2021/10/12 09:29:38;;;;;;;4.70;1.10;;;12.10;99.90;;;;;;5100218;28;20567;-45
2021/10/12 09:32:07;;;;;;;1.97;1.10;;;12.20;99.90;;;;;;5106268;22;20453;-46
2021/10/12 09:34:35;;;;;;;3.53;1.13;;;12.70;99.90;;;;;;5079825;28;20466;-45
2021/10/12 09:39:32;;;;;;;1.70;1.20;;;14.40;99.90;;;;;;5100692;22;20513;-45
2021/10/12 09:42:03;;;;;;;4.40;3.13;;;15.70;99.90;;;;;;5101976;28;20594;-52
2021/10/12 09:44:29;;;;;;;8.63;4.90;;;17.10;99.90;;;;;;5088859;22;20787;-48
2021/10/12 09:47:07;;;;;;;3.63;2.40;;;18.40;99.90;;;;;;5077791;28;20435;-46
2021/10/12 09:49:34;;;;;;;3.40;1.07;;;18.40;99.90;;;;;;5103611;22;20484;-48
2021/10/12 09:52:03;;;;;;;4.33;1.17;;;18.20;99.90;;;;;;5098146;28;20843;-45
2021/10/12 09:54:32;;;;;;;2.70;1.23;;;18.10;99.90;;;;;;5104659;22;20489;-46
2021/10/12 09:57:02;;;;;;;3.00;1.10;;;18.30;99.90;;;;;;5098256;28;20841;-45
2021/10/12 09:59:29;;;;;;;2.80;1.40;;;18.50;99.90;;;;;;5100341;22;20551;-47
2021/10/12 10:01:58;;;;;;;2.47;0.97;;;19.40;99.90;;;;;;5077718;28;20466;-43
2021/10/12 10:04:26;;;;;;;2.37;1.20;;;20.10;99.90;;;;;;5089451;22;20477;-47
2021/10/12 10:06:54;;;;;;;2.23;0.90;;;20.90;96.20;;;;;;5099792;28;20459;-50
2021/10/12 10:09:22;;;;;;;1.20;0.83;;;21.10;95.30;;;;;;5106392;22;20484;-50
2021/10/12 10:11:51;;;;;;;1.60;1.20;;;21.20;95.60;;;;;;5080274;28;20438;-49
2021/10/12 10:16:49;;;;;;;2.60;0.80;;;20.60;95.30;;;;;;5083099;22;20490;-47
2021/10/12 10:19:21;;;;;;;1.77;1.10;;;20.20;95.10;;;;;;5077122;28;20470;-47
2021/10/12 10:21:48;;;;;;;1.57;0.90;;;19.30;96.50;;;;;;5084311;22;20490;-47
2021/10/12 10:24:23;;;;;;;7.23;1.40;;;18.40;98.10;;;;;;5077096;28;20474;-48
2021/10/12 10:26:51;;;;;;;1.00;0.80;;;17.50;99.90;;;;;;5102372;22;20502;-45
2021/10/12 10:29:21;;;;;;;5.57;1.20;;;16.70;99.90;;;;;;5097410;28;20469;-45
2021/10/12 10:31:52;;;;;;;2.30;1.30;;;16.10;99.90;;;;;;5074294;22;20487;-45
2021/10/12 10:34:34;;;;;;;2.00;1.27;;;15.50;99.90;;;;;;5057425;28;20566;-44
2021/10/12 10:37:33;;;;;;;1.50;0.80;;;14.90;99.90;;;;;;5097422;22;20485;-43
2021/10/12 10:40:03;;;;;;;3.80;0.97;;;14.40;99.90;;;;;;5097983;28;20476;-44
2021/10/12 10:42:54;;;;;;;4.87;1.07;;;13.80;99.90;;;;;;5105730;22;20492;-46
2021/10/12 10:45:21;;;;;;;1.10;0.63;;;13.40;99.90;;;;;;5102456;28;20470;-55
2021/10/12 10:47:50;;;;;;;1.60;1.00;;;13.80;99.90;;;;;;5095360;22;20486;-44
2021/10/12 10:50:19;;;;;;;1.27;1.00;;;14.50;99.90;;;;;;5077511;28;20458;-48
2021/10/12 10:52:46;;;;;;;1.40;1.00;;;15.30;99.90;;;;;;5093761;22;20985;-46
2021/10/12 10:55:19;;;;;;;1.20;0.90;;;15.50;99.90;;;;;;5097313;28;20526;-43
2021/10/12 10:58:04;;;;;;;5.00;1.10;;;15.30;99.90;;;;;;5097621;22;20478;-48
2021/10/12 11:00:37;;;;;;;2.03;1.40;;;15.10;99.90;;;;;;5076987;28;20462;-45
2021/10/12 11:03:07;;;;;;;2.70;1.00;;;14.60;99.90;;;;;;5093794;22;20476;-45
2021/10/12 11:05:36;;;;;;;4.13;0.90;;;14.20;99.90;;;;;;5097354;28;20941;-45
2021/10/12 11:08:15;;;;;;;2.00;0.70;;;14.10;99.90;;;;;;5098766;22;20516;-48
2021/10/12 11:10:42;;;;;;;1.00;0.80;;;14.00;99.90;;;;;;5080099;28;20790;-44
2021/10/12 11:13:09;;;;;;;1.80;1.00;;;14.00;99.90;;;;;;5093548;22;20579;-45
2021/10/12 11:15:47;;;;;;;2.17;0.80;;;14.00;99.90;;;;;;5097496;28;20472;-43
2021/10/12 11:18:15;;;;;;;1.00;0.70;;;14.10;99.90;;;;;;5099745;22;20494;-47
2021/10/12 11:20:43;;;;;;;2.40;0.90;;;14.20;99.90;;;;;;5076437;28;20532;-42
2021/10/12 11:23:12;;;;;;;1.17;0.90;;;14.30;99.90;;;;;;5087250;22;22138;-44
2021/10/12 11:25:39;;;;;;;1.73;0.90;;;14.30;99.90;;;;;;5089474;22;20486;-45
2021/10/12 11:28:10;;;;;;;2.40;1.10;;;14.30;99.90;;;;;;5076719;28;20454;-44
2021/10/12 11:30:38;;;;;;;1.93;1.00;;;14.40;99.90;;;;;;5097926;22;20550;-46
2021/10/12 11:33:04;;;;;;;1.47;0.93;;;14.50;99.90;;;;;;5096861;28;20434;-45
2021/10/12 11:35:40;;;;;;;5.33;1.20;;;14.50;99.90;;;;;;5094869;22;20567;-43
2021/10/12 11:38:08;;;;;;;3.37;1.00;;;14.40;99.90;;;;;;5077495;28;20482;-43
2021/10/12 11:40:36;;;;;;;4.30;1.10;;;14.50;99.90;;;;;;5097682;22;20550;-46
2021/10/12 11:43:03;;;;;;;1.40;0.90;;;14.40;99.90;;;;;;5100217;28;20471;-45
2021/10/12 11:45:31;;;;;;;1.50;1.00;;;14.40;99.90;;;;;;5097725;22;20884;-46
2021/10/12 11:47:58;;;;;;;2.07;0.90;;;14.50;99.90;;;;;;5077350;28;20474;-45
2021/10/12 11:50:26;;;;;;;2.60;0.90;;;14.60;99.90;;;;;;5089455;22;20485;-44
2021/10/12 11:52:55;;;;;;;2.07;1.03;;;14.70;99.90;;;;;;5096554;28;20449;-44
2021/10/12 11:55:26;;;;;;;1.77;0.80;;;14.80;99.90;;;;;;5100495;22;20520;-47
2021/10/12 11:57:53;;;;;;;3.87;1.00;;;14.80;99.90;;;;;;5076337;28;20473;-45
2021/10/12 12:00:36;;;;;;;2.07;1.10;;;14.90;99.90;;;;;;5083677;22;20970;-46
2021/10/12 12:03:15;;;;;;;1.53;1.03;;;14.90;99.90;;;;;;5075980;28;20446;-47
2021/10/12 12:05:50;;;;;;;1.00;0.70;;;15.00;99.90;;;;;;5083914;22;20492;-45
2021/10/12 12:08:18;;;;;;;1.50;1.27;;;15.00;99.90;;;;;;5080196;28;20426;-46
2021/10/12 12:10:45;;;;;;;1.20;1.10;;;14.80;99.90;;;;;;5086652;22;20473;-43
2021/10/12 12:13:12;;;;;;;1.13;0.80;;;14.70;99.90;;;;;;5089973;22;21109;-46
2021/10/12 12:15:40;;;;;;;1.43;0.97;;;14.70;99.90;;;;;;5075655;28;20473;-43
2021/10/12 12:18:14;;;;;;;2.37;0.80;;;14.60;99.90;;;;;;5095600;22;20515;-47
2021/10/12 12:20:54;;;;;;;2.63;0.93;;;14.50;99.90;;;;;;5096669;28;20468;-46
2021/10/12 12:23:37;;;;;;;1.60;1.10;;;14.30;99.90;;;;;;5097018;28;20436;-44
2021/10/12 12:26:06;;;;;;;2.57;1.30;;;14.40;99.90;;;;;;5095824;28;20499;-46
2021/10/12 12:28:33;;;;;;;1.20;0.90;;;14.50;99.90;;;;;;5096502;28;20743;-45
2021/10/12 12:31:16;;;;;;;1.33;0.90;;;14.60;99.90;;;;;;5096513;28;20465;-45
2021/10/12 12:33:43;;;;;;;2.47;1.00;;;14.70;99.90;;;;;;5096381;28;20463;-45
2021/10/12 12:36:10;;;;;;;1.73;1.10;;;14.80;99.90;;;;;;5097301;28;20523;-47
2021/10/12 12:38:39;;;;;;;1.27;0.87;;;14.80;99.90;;;;;;5095393;28;20499;-48
2021/10/12 12:41:17;;;;;;;5.43;1.17;;;14.60;99.90;;;;;;5095741;28;20469;-48
2021/10/12 12:43:52;;;;;;;1.60;1.00;;;14.50;99.90;;;;;;5096187;28;20698;-44
2021/10/12 12:46:20;;;;;;;3.33;0.93;;;14.20;99.90;;;;;;5099552;28;20511;-44
2021/10/12 12:49:01;;;;;;;2.30;1.27;;;14.10;99.90;;;;;;5098844;28;20503;-44
2021/10/12 12:51:30;;;;;;;2.07;1.03;;;13.90;99.90;;;;;;5095987;28;20464;-46
2021/10/12 12:53:58;;;;;;;1.60;1.00;;;13.80;99.90;;;;;;5096074;28;20547;-44
2021/10/12 12:56:32;;;;;;;2.80;1.10;;;13.60;99.90;;;;;;5097766;28;20960;-44
2021/10/12 12:59:05;;;;;;;1.10;0.90;;;13.50;99.90;;;;;;5100460;28;20465;-45
2021/10/12 13:01:32;;;;;;;1.90;0.93;;;13.40;99.90;;;;;;5100040;28;20479;-45
2021/10/12 13:03:59;;;;;;;1.70;0.97;;;13.50;99.90;;;;;;5099989;28;20506;-46
2021/10/12 13:06:26;;;;;;;3.90;0.90;;;13.40;99.90;;;;;;5116564;28;20461;-42
2021/10/12 13:08:56;;;;;;;1.93;0.90;;;13.50;99.90;;;;;;5120777;28;20518;-46
2021/10/12 13:11:25;;;;;;;2.43;1.17;;;13.60;99.90;;;;;;5120054;28;20537;-44
2021/10/12 13:13:52;;;;;;;1.60;1.00;;;13.70;99.90;;;;;;5120445;28;20446;-43
2021/10/12 13:16:21;;;;;;;2.23;1.17;;;13.80;99.90;;;;;;5120281;28;20461;-45
2021/10/12 13:18:48;;;;;;;1.60;1.00;;;13.80;99.90;;;;;;5120056;28;20484;-47
2021/10/12 13:21:14;;;;;;;3.47;1.43;;;14.00;99.90;;;;;;5120224;28;20476;-42
2021/10/12 13:23:41;;;;;;;1.63;1.00;;;14.10;99.90;;;;;;5120435;28;20464;-48
2021/10/12 13:26:08;;;;;;;3.53;0.93;;;14.20;99.90;;;;;;5120476;28;20476;-42
2021/10/12 13:28:36;;;;;;;2.60;1.10;;;14.20;99.90;;;;;;5120694;28;20444;-43
2021/10/12 13:31:02;;;;;;;1.57;0.80;;;14.20;99.40;;;;;;5120911;28;20494;-46
2021/10/12 13:33:29;;;;;;;1.43;1.00;;;14.10;99.00;;;;;;5120413;28;20452;-44
2021/10/12 13:35:58;;;;;;;1.20;0.83;;;14.20;98.50;;;;;;5120268;28;20477;-42
2021/10/12 13:38:25;;;;;;;1.90;1.00;;;14.10;97.70;;;;;;5119953;28;20472;-41
2021/10/12 13:40:52;;;;;;;3.77;1.17;;;14.10;96.60;;;;;;5119811;28;20480;-50
2021/10/12 13:43:18;;;;;;;5.27;1.47;;;14.20;96.00;;;;;;5119489;28;20441;-45
2021/10/12 13:45:46;;;;;;;1.50;0.90;;;14.30;96.30;;;;;;5119491;28;20488;-44
2021/10/12 13:48:13;;;;;;;3.60;1.00;;;14.30;95.90;;;;;;5119192;28;20448;-47
2021/10/12 13:50:40;;;;;;;4.70;1.30;;;14.40;95.90;;;;;;5119775;28;20472;-45
2021/10/12 13:53:06;;;;;;;2.50;1.23;;;14.40;95.60;;;;;;5119724;28;20462;-43
2021/10/12 13:55:33;;;;;;;1.30;1.00;;;14.50;95.90;;;;;;5119519;28;20445;-43
2021/10/12 13:58:01;;;;;;;1.27;1.00;;;14.30;95.40;;;;;;5119388;28;20465;-43
2021/10/12 14:00:28;;;;;;;1.87;1.27;;;14.30;95.80;;;;;;5119551;28;20433;-45
2021/10/12 14:02:56;;;;;;;1.43;0.80;;;14.20;96.60;;;;;;5119314;28;20418;-45
2021/10/12 14:05:23;;;;;;;1.20;0.83;;;14.10;96.40;;;;;;5119026;28;20452;-47
2021/10/12 14:07:50;;;;;;;1.10;0.90;;;14.10;97.10;;;;;;5118670;28;20464;-43
2021/10/12 14:10:17;;;;;;;2.80;0.90;;;14.00;97.80;;;;;;5118856;28;20437;-40
2021/10/12 14:12:43;;;;;;;2.37;0.90;;;14.00;96.70;;;;;;5118511;28;20428;-43
2021/10/12 14:15:12;;;;;;;0.90;0.70;;;13.90;97.30;;;;;;5118775;28;20449;-42
2021/10/12 14:17:41;;;;;;;1.40;0.80;;;13.80;97.70;;;;;;5118448;28;20441;-41
2021/10/12 14:20:09;;;;;;;1.63;1.00;;;13.60;98.30;;;;;;5118862;28;20433;-46
2021/10/12 14:22:36;;;;;;;1.30;0.90;;;13.50;99.20;;;;;;5118329;28;20954;-41
2021/10/12 14:25:02;;;;;;;2.50;1.00;;;13.40;99.90;;;;;;5118960;28;20432;-43
2021/10/12 14:27:29;;;;;;;2.40;1.20;;;13.30;99.90;;;;;;5118649;28;20433;-43
2021/10/12 14:30:02;;;;;;;1.50;1.07;;;13.20;99.90;;;;;;5118594;28;20452;-43
2021/10/12 14:32:29;;;;;;;2.00;0.80;;;13.10;99.90;;;;;;5118721;28;20445;-43
2021/10/12 14:34:56;;;;;;;7.77;2.50;;;13.00;99.90;;;;;;5118849;28;20438;-52
2021/10/12 14:37:24;;;;;;;1.73;1.20;;;12.80;99.90;;;;;;5119461;28;20456;-43
2021/10/12 14:39:50;;;;;;;1.20;0.80;;;12.80;99.90;;;;;;5118515;28;20474;-43
2021/10/12 14:42:17;;;;;;;1.43;0.90;;;12.70;99.90;;;;;;5118239;28;20559;-40
2021/10/12 14:44:44;;;;;;;3.10;1.10;;;12.70;99.90;;;;;;5117993;28;20457;-43
2021/10/12 14:47:11;;;;;;;6.73;0.97;;;12.60;99.90;;;;;;5118212;28;20487;-46
2021/10/12 14:49:37;;;;;;;2.30;1.10;;;12.50;99.90;;;;;;5118641;28;20449;-45
2021/10/12 14:52:05;;;;;;;2.07;0.93;;;12.50;99.90;;;;;;5118480;28;20461;-42
2021/10/12 14:54:33;;;;;;;1.97;1.27;;;12.60;99.90;;;;;;5117988;28;20445;-44
2021/10/12 14:56:59;;;;;;;2.50;0.97;;;12.70;99.90;;;;;;5117912;28;20462;-44
2021/10/12 14:59:26;;;;;;;1.10;0.83;;;12.70;99.90;;;;;;5118118;28;20474;-44
2021/10/12 15:01:53;;;;;;;3.60;0.87;;;12.70;99.90;;;;;;5118096;28;20449;-47
2021/10/12 15:04:21;;;;;;;1.20;0.70;;;12.80;99.90;;;;;;5117808;28;20448;-44
2021/10/12 15:06:50;;;;;;;1.00;0.70;;;12.70;99.90;;;;;;5118170;28;20469;-43
2021/10/12 15:09:17;;;;;;;3.73;1.00;;;12.70;99.90;;;;;;5117982;28;20533;-43
2021/10/12 15:11:45;;;;;;;1.20;0.70;;;12.80;99.90;;;;;;5117988;28;20450;-48
2021/10/12 15:14:13;;;;;;;2.23;1.20;;;12.80;99.90;;;;;;5118409;28;20452;-50
2021/10/12 15:16:43;;;;;;;1.40;1.30;;;12.60;99.90;;;;;;5118553;28;20462;-49
2021/10/12 15:19:11;;;;;;;1.43;0.70;;;12.60;99.90;;;;;;5117405;28;20457;-45
2021/10/12 15:21:38;;;;;;;1.57;0.80;;;12.60;99.90;;;;;;5117604;28;20481;-44
2021/10/12 15:24:07;;;;;;;2.30;1.00;;;12.60;99.90;;;;;;5117981;28;20453;-44